Terminal Aerodrome Forecast
Issued by NWS Pocatello, ID

Home | Current Version | Previous Version | Text Only | Print | Product List | Glossary On
Versions: 1 2 3 4 5 6 7 8 9 10 11 12 13 14 15 16 17 18 19 20 21 22 23 24 25 26 27 28 29
000
FTUS45 KPIH 290900 AAB
TAFIDA
TAF AMD
KIDA 290926Z 2909/3006 36006KT P6SM SCT009 OVC025
      TEMPO 2909/2912 SCT009 OVC015
     FM291200 01008KT 6SM -SN BR OVC008
     FM292000 01008KT P6SM OVC012=

USA.gov is the U.S. government's official web portal to all federal, state and local government web resources and services.